Time;durP1;ratioP1;P1;durP2;ratioP2;P2;SDS_P1;SDS_P2;PMS_P1;PMS_P2;Temp;Humidity;BMP_temperature;BMP_pressure;BME280_temperature;BME280_humidity;BME280_pressure;Samples;Min_cycle;Max_cycle;Signal;HPM_P1;HPM_P2
2023/09/19 00:00:21;;;;;;;0.20;0.20;;;;;;;23.24;56.88;100628.94;5070320;28;20033;-70
2023/09/19 00:02:53;;;;;;;0.10;0.10;;;;;;;22.52;60.11;100630.97;5065748;28;20082;-69
2023/09/19 00:05:19;;;;;;;0.10;0.10;;;;;;;22.79;58.96;100639.13;5051957;28;20029;-70
2023/09/19 00:07:44;;;;;;;0.10;0.10;;;;;;;22.66;59.54;100645.47;5070082;28;20485;-70
2023/09/19 00:10:10;;;;;;;0.20;0.20;;;;;;;22.17;60.81;100650.94;5069829;28;20090;-70
2023/09/19 00:12:35;;;;;;;0.10;0.10;;;;;;;22.05;61.60;100647.91;5069796;28;20421;-68
2023/09/19 00:15:05;;;;;;;0.15;0.15;;;;;;;23.12;57.76;100650.63;5069342;28;20039;-69
2023/09/19 00:17:31;;;;;;;0.10;0.10;;;;;;;22.75;58.43;100646.34;5069597;28;20048;-68
2023/09/19 00:19:57;;;;;;;0.10;0.10;;;;;;;22.88;58.49;100653.69;5070212;28;20020;-70
2023/09/19 00:22:22;;;;;;;0.10;0.10;;;;;;;22.77;58.69;100657.00;5069641;28;20424;-70
2023/09/19 00:24:48;;;;;;;0.20;0.20;;;;;;;22.50;59.77;100655.13;5069746;28;20028;-69
2023/09/19 00:27:13;;;;;;;0.20;0.20;;;;;;;22.25;61.19;100659.22;5069882;28;20756;-69
2023/09/19 00:29:39;;;;;;;0.20;0.20;;;;;;;22.32;60.45;100665.09;5069662;28;20060;-69
2023/09/19 00:32:06;;;;;;;0.10;0.10;;;;;;;21.66;62.56;100665.59;5070335;28;20086;-70
2023/09/19 00:34:34;;;;;;;0.10;0.10;;;;;;;22.47;59.08;100664.75;5069582;28;20500;-69
2023/09/19 00:36:59;;;;;;;0.15;0.15;;;;;;;22.19;59.62;100663.19;5069641;28;20558;-69
2023/09/19 00:39:25;;;;;;;0.17;0.17;;;;;;;22.48;59.14;100676.53;5085382;28;20043;-69
2023/09/19 00:41:51;;;;;;;0.20;0.20;;;;;;;22.52;58.89;100667.41;5089809;28;20043;-70
2023/09/19 00:44:17;;;;;;;0.10;0.10;;;;;;;23.38;56.14;100670.84;5089811;28;20081;-71
2023/09/19 00:46:43;;;;;;;0.10;0.10;;;;;;;22.69;58.78;100672.25;5087904;28;20391;-70
2023/09/19 00:49:09;;;;;;;0.20;0.20;;;;;;;22.67;58.39;100669.00;5069715;28;20052;-70
2023/09/19 00:51:35;;;;;;;0.20;0.20;;;;;;;22.17;59.72;100681.06;5069229;28;20044;-70
2023/09/19 00:54:02;;;;;;;0.20;0.20;;;;;;;22.05;61.71;100680.75;5069872;28;20419;-69
2023/09/19 00:56:28;;;;;;;0.10;0.10;;;;;;;22.23;60.79;100680.63;5070107;28;20052;-70
2023/09/19 00:58:53;;;;;;;0.10;0.10;;;;;;;21.99;61.39;100696.47;5069742;28;20127;-69
2023/09/19 01:01:19;;;;;;;0.10;0.10;;;;;;;22.59;59.58;100688.91;5069541;28;20041;-69
2023/09/19 01:03:45;;;;;;;0.10;0.10;;;;;;;22.25;60.34;100685.81;5069434;28;20041;-69
2023/09/19 01:06:10;;;;;;;0.10;0.10;;;;;;;21.89;62.03;100690.38;5069128;28;20083;-70
2023/09/19 01:08:36;;;;;;;0.20;0.20;;;;;;;21.94;61.54;100693.81;5069322;28;20036;-72
2023/09/19 01:11:16;;;;;;;0.10;0.10;;;;;;;21.58;62.96;100706.53;5069861;28;20028;-69
2023/09/19 01:14:11;;;;;;;0.10;0.10;;;;;;;21.80;62.37;100709.38;5069379;28;20083;-69
2023/09/19 01:16:53;;;;;;;0.20;0.20;;;;;;;21.93;60.93;100703.16;5069066;28;20056;-69
2023/09/19 01:19:27;;;;;;;0.20;0.20;;;;;;;22.40;59.75;100708.19;5069380;28;20045;-70
2023/09/19 01:22:06;;;;;;;0.10;0.10;;;;;;;22.43;59.66;100704.03;5069121;28;20032;-69
2023/09/19 01:24:47;;;;;;;0.20;0.20;;;;;;;22.78;57.99;100710.69;5069194;28;20120;-71
2023/09/19 01:27:57;;;;;;;0.10;0.10;;;;;;;22.55;58.99;100704.31;5069449;28;20075;-69
2023/09/19 01:30:32;;;;;;;0.10;0.10;;;;;;;21.73;61.60;100707.06;5072690;28;20040;-70
2023/09/19 01:32:59;;;;;;;0.10;0.10;;;;;;;22.11;60.14;100704.16;5072787;28;20117;-71
2023/09/19 01:35:24;;;;;;;0.15;0.15;;;;;;;22.17;59.62;100703.75;5086753;28;20089;-70
2023/09/19 01:37:50;;;;;;;0.20;0.20;;;;;;;22.46;58.97;100703.41;5081505;28;20430;-70
2023/09/19 01:40:21;;;;;;;0.10;0.10;;;;;;;21.85;61.30;100712.06;5072563;28;20040;-68
2023/09/19 01:43:02;;;;;;;0.20;0.20;;;;;;;22.07;59.99;100705.91;5072460;28;20392;-70
2023/09/19 01:45:42;;;;;;;;;;;;;;;22.51;57.43;100712.34;5089665;28;20036;-69
2023/09/19 01:48:40;;;;;;;0.10;0.10;;;;;;;22.25;59.62;100707.72;5092690;28;19919;-69
2023/09/19 01:51:06;;;;;;;0.17;0.17;;;;;;;22.25;58.38;100704.97;5092657;28;20032;-69
2023/09/19 01:53:38;;;;;;;0.10;0.10;;;;;;;21.95;59.57;100719.25;5092782;28;20475;-69
2023/09/19 01:56:08;;;;;;;0.10;0.10;;;;;;;21.98;59.85;100711.25;5108746;28;20077;-70
2023/09/19 01:58:39;;;;;;;0.10;0.10;;;;;;;21.63;60.00;100714.63;5092331;28;20096;-69
2023/09/19 02:01:08;;;;;;;0.10;0.10;;;;;;;21.30;60.75;100719.31;5092244;28;20043;-69
2023/09/19 02:03:35;;;;;;;0.20;0.20;;;;;;;21.08;61.70;100721.88;5092334;28;20071;-69
2023/09/19 02:06:00;;;;;;;0.10;0.10;;;;;;;21.39;59.86;100719.44;5080223;28;20373;-69
2023/09/19 02:08:26;;;;;;;0.10;0.10;;;;;;;22.00;58.31;100727.38;5072460;28;20029;-70
2023/09/19 02:10:52;;;;;;;0.20;0.20;;;;;;;21.69;58.87;100719.72;5072025;28;20048;-69
2023/09/19 02:13:19;;;;;;;0.10;0.10;;;;;;;22.06;57.29;100710.56;5071785;28;20035;-70
2023/09/19 02:15:46;;;;;;;0.10;0.10;;;;;;;21.41;60.46;100715.28;5071781;28;20044;-70
2023/09/19 02:18:12;;;;;;;0.13;0.13;;;;;;;22.45;56.75;100707.25;5072010;28;20040;-70
2023/09/19 02:20:37;;;;;;;0.15;0.15;;;;;;;22.18;57.65;100704.56;5071949;28;20031;-70
2023/09/19 02:23:03;;;;;;;0.13;0.13;;;;;;;22.50;56.64;100693.47;5072125;28;20484;-69
2023/09/19 02:25:29;;;;;;;0.20;0.20;;;;;;;22.15;58.52;100703.22;5053433;28;20479;-70
2023/09/19 02:27:57;;;;;;;0.20;0.20;;;;;;;22.60;57.02;100702.28;5071525;28;20037;-69
2023/09/19 02:30:23;;;;;;;0.10;0.10;;;;;;;22.45;57.41;100710.00;5071576;28;20036;-70
2023/09/19 02:32:49;;;;;;;0.10;0.10;;;;;;;21.95;59.35;100719.25;5071657;28;20101;-68
2023/09/19 02:35:15;;;;;;;0.10;0.10;;;;;;;21.56;60.95;100720.50;5072169;28;20021;-70
2023/09/19 02:37:41;;;;;;;0.10;0.10;;;;;;;21.84;60.64;100716.72;5066262;28;20045;-70
2023/09/19 02:40:18;;;;;;;0.10;0.10;;;;;;;21.83;60.82;100730.72;5055781;28;20601;-70
2023/09/19 02:42:46;;;;;;;0.20;0.20;;;;;;;21.82;60.91;100732.63;5071228;28;20468;-70
2023/09/19 02:45:12;;;;;;;0.20;0.20;;;;;;;21.43;62.38;100734.94;5056365;28;20029;-71
2023/09/19 02:47:40;;;;;;;0.10;0.10;;;;;;;21.75;61.06;100723.16;5051223;28;20056;-70
2023/09/19 02:50:05;;;;;;;0.15;0.15;;;;;;;21.69;62.07;100719.72;5051864;28;20088;-70
2023/09/19 02:52:31;;;;;;;0.10;0.10;;;;;;;21.74;61.28;100727.81;5050907;28;20041;-69
2023/09/19 02:54:57;;;;;;;0.10;0.10;;;;;;;21.24;63.68;100736.91;5051165;28;20041;-71
2023/09/19 02:57:24;;;;;;;0.10;0.10;;;;;;;22.18;61.09;100731.94;5050911;28;20067;-69
2023/09/19 02:59:49;;;;;;;0.10;0.10;;;;;;;21.23;63.09;100734.50;5051024;28;20090;-69
2023/09/19 03:02:15;;;;;;;0.10;0.10;;;;;;;22.08;61.22;100730.22;5051431;28;20036;-70
2023/09/19 03:04:41;;;;;;;0.10;0.10;;;;;;;22.37;59.88;100730.69;5050932;28;20606;-70
2023/09/19 03:07:07;;;;;;;0.10;0.10;;;;;;;22.05;60.52;100736.31;5050690;28;20072;-70
2023/09/19 03:09:32;;;;;;;0.10;0.10;;;;;;;22.00;61.55;100746.53;5050605;28;20098;-69
2023/09/19 03:11:58;;;;;;;0.10;0.10;;;;;;;21.47;62.85;100721.47;5050238;28;20040;-69
2023/09/19 03:14:23;;;;;;;0.10;0.10;;;;;;;21.24;63.93;100725.97;5050075;28;20747;-70
2023/09/19 03:16:49;;;;;;;0.10;0.10;;;;;;;21.71;61.94;100733.91;5062635;28;20054;-69
2023/09/19 03:19:15;;;;;;;0.13;0.13;;;;;;;22.59;59.02;100728.06;5069919;28;20649;-70
2023/09/19 03:21:40;;;;;;;0.10;0.10;;;;;;;22.34;59.84;100727.78;5069510;28;20071;-71
2023/09/19 03:24:06;;;;;;;0.20;0.20;;;;;;;22.38;59.78;100724.13;5069467;28;20043;-69
2023/09/19 03:26:33;;;;;;;0.15;0.15;;;;;;;22.19;60.06;100725.38;5066328;28;20468;-70
2023/09/19 03:28:58;;;;;;;0.10;0.10;;;;;;;21.98;60.88;100726.84;5012357;28;20080;-70
2023/09/19 03:31:24;;;;;;;0.10;0.10;;;;;;;22.44;59.76;100711.94;5061152;28;20044;-70
2023/09/19 03:33:49;;;;;;;0.10;0.10;;;;;;;22.05;60.20;100716.34;5069327;28;20029;-69
2023/09/19 03:36:14;;;;;;;0.10;0.10;;;;;;;22.41;59.13;100714.47;5069313;28;20028;-68
2023/09/19 03:38:40;;;;;;;0.10;0.10;;;;;;;22.58;57.95;100718.22;5068953;28;20020;-70
2023/09/19 03:41:05;;;;;;;0.10;0.10;;;;;;;21.48;61.83;100726.66;5069751;28;20028;-70
2023/09/19 03:43:32;;;;;;;0.10;0.10;;;;;;;21.50;60.87;100734.56;5068846;28;20040;-70
2023/09/19 03:46:04;;;;;;;0.10;0.10;;;;;;;21.58;60.77;100726.47;5069316;28;20092;-69
2023/09/19 03:48:30;;;;;;;0.10;0.10;;;;;;;21.01;61.76;100729.63;5061098;28;20100;-70
2023/09/19 03:50:56;;;;;;;0.10;0.10;;;;;;;22.07;58.65;100720.41;5069011;28;20045;-70
2023/09/19 03:53:22;;;;;;;0.10;0.10;;;;;;;22.45;57.23;100710.00;5070648;28;20040;-69
2023/09/19 03:55:47;;;;;;;0.10;0.10;;;;;;;22.08;58.05;100716.53;5070222;28;20052;-70
2023/09/19 03:58:13;;;;;;;0.10;0.10;;;;;;;21.50;60.35;100716.22;5070058;28;20388;-69
2023/09/19 04:00:39;;;;;;;0.10;0.10;;;;;;;21.44;59.79;100722.09;5068544;28;20036;-71
2023/09/19 04:03:06;;;;;;;0.10;0.10;;;;;;;20.93;61.51;100720.13;5066726;28;20126;-69
2023/09/19 04:05:33;;;;;;;0.20;0.20;;;;;;;21.52;59.53;100740.56;5065608;28;20025;-69
2023/09/19 04:07:58;;;;;;;0.10;0.10;;;;;;;21.62;59.35;100738.44;5059674;28;20104;-71
2023/09/19 04:10:23;;;;;;;0.10;0.10;;;;;;;21.72;58.47;100732.78;5065679;28;20039;-70
2023/09/19 04:12:56;;;;;;;0.20;0.20;;;;;;;20.40;62.77;100748.72;5069460;28;20082;-70
2023/09/19 04:15:24;;;;;;;0.20;0.20;;;;;;;20.82;61.91;100753.38;5069276;28;20036;-69
2023/09/19 04:17:50;;;;;;;0.20;0.20;;;;;;;20.83;60.93;100747.59;5068910;28;20123;-69
2023/09/19 04:20:19;;;;;;;0.10;0.10;;;;;;;20.91;60.53;100752.41;5070412;28;20032;-69
2023/09/19 04:22:46;;;;;;;0.20;0.20;;;;;;;21.42;58.95;100757.13;5071645;28;20036;-70
2023/09/19 04:25:12;;;;;;;0.10;0.10;;;;;;;20.96;59.58;100760.53;5089931;28;20119;-70
2023/09/19 04:27:38;;;;;;;0.10;0.10;;;;;;;21.25;59.02;100771.31;5089844;28;20047;-69
2023/09/19 04:30:09;;;;;;;0.00;0.00;;;;;;;21.23;58.85;100764.56;5090139;28;20024;-70
2023/09/19 04:32:36;;;;;;;0.10;0.10;;;;;;;20.90;59.93;100769.09;5080577;28;20070;-68
2023/09/19 04:35:05;;;;;;;0.20;0.20;;;;;;;21.86;56.80;100765.66;5070178;28;20027;-70
2023/09/19 04:37:30;;;;;;;0.10;0.10;;;;;;;20.65;59.92;100767.53;5068618;28;20029;-69
2023/09/19 04:39:56;;;;;;;0.13;0.13;;;;;;;20.28;61.70;100772.94;5068466;28;20052;-69
2023/09/19 04:42:24;;;;;;;0.20;0.20;;;;;;;20.75;58.71;100777.50;5068825;28;20086;-69
2023/09/19 04:44:49;;;;;;;0.10;0.10;;;;;;;19.99;61.77;100777.56;5068652;28;20029;-69
2023/09/19 04:47:16;;;;;;;0.10;0.10;;;;;;;20.29;60.02;100782.72;5069626;28;20031;-68
2023/09/19 04:49:41;;;;;;;0.20;0.20;;;;;;;20.09;60.65;100786.47;5050338;28;20397;-68
2023/09/19 04:52:07;;;;;;;0.20;0.20;;;;;;;20.34;59.58;100799.06;5068982;28;20033;-69
2023/09/19 04:54:33;;;;;;;0.15;0.15;;;;;;;20.09;60.86;100793.81;5083736;28;20039;-69
2023/09/19 04:56:59;;;;;;;0.20;0.20;;;;;;;20.35;59.91;100783.47;5050515;28;20381;-68
2023/09/19 04:59:24;;;;;;;0.25;0.25;;;;;;;19.70;61.55;100787.66;5069118;28;20035;-70
2023/09/19 05:01:50;;;;;;;0.25;0.25;;;;;;;20.16;59.82;100788.84;5070013;28;20024;-68
2023/09/19 05:04:15;;;;;;;0.15;0.15;;;;;;;20.34;58.97;100796.34;5054427;28;20060;-69
2023/09/19 05:06:41;;;;;;;0.20;0.20;;;;;;;20.27;58.90;100784.94;5077797;28;20128;-69
2023/09/19 05:09:06;;;;;;;0.10;0.10;;;;;;;20.28;58.79;100788.47;5072404;28;20086;-68
2023/09/19 05:11:33;;;;;;;0.10;0.10;;;;;;;20.21;59.42;100791.53;5072976;28;20361;-68
2023/09/19 05:14:03;;;;;;;0.10;0.10;;;;;;;19.99;59.68;100793.94;5073513;28;20039;-68
2023/09/19 05:16:31;;;;;;;0.10;0.10;;;;;;;20.01;59.47;100798.00;5072496;28;20068;-68
2023/09/19 05:18:58;;;;;;;0.20;0.20;;;;;;;20.58;57.40;100788.91;5074095;28;20798;-69
2023/09/19 05:21:24;;;;;;;0.20;0.20;;;;;;;20.23;57.89;100793.97;5064771;28;20114;-70
2023/09/19 05:23:52;;;;;;;0.13;0.13;;;;;;;20.68;56.77;100796.97;5089975;28;20035;-69
2023/09/19 05:26:17;;;;;;;0.20;0.20;;;;;;;20.36;57.99;100806.94;5093362;28;20032;-70
2023/09/19 05:28:43;;;;;;;0.20;0.20;;;;;;;19.95;59.01;100796.44;5084590;28;20090;-69
2023/09/19 05:31:08;;;;;;;0.20;0.20;;;;;;;19.94;58.98;100797.53;5072623;28;20503;-68
2023/09/19 05:33:34;;;;;;;0.20;0.20;;;;;;;19.88;58.40;100803.31;5056986;28;20035;-69
2023/09/19 05:35:59;;;;;;;0.10;0.10;;;;;;;20.08;58.32;100803.94;5088522;28;20043;-69
2023/09/19 05:38:26;;;;;;;0.10;0.10;;;;;;;19.87;59.20;100798.97;5082239;28;20021;-69
2023/09/19 05:40:52;;;;;;;0.20;0.20;;;;;;;20.35;57.54;100805.31;5076981;28;20084;-69
2023/09/19 05:43:18;;;;;;;0.10;0.10;;;;;;;20.46;57.47;100804.91;5064069;28;20041;-69
2023/09/19 05:45:44;;;;;;;0.10;0.10;;;;;;;20.86;55.86;100798.13;5070231;28;20469;-71
2023/09/19 05:48:15;;;;;;;0.22;0.22;;;;;;;20.76;57.45;100803.72;5081820;28;20456;-69
2023/09/19 05:50:41;;;;;;;0.10;0.10;;;;;;;20.11;59.00;100814.28;5071033;28;20056;-70
2023/09/19 05:53:06;;;;;;;0.10;0.10;;;;;;;20.64;57.15;100811.50;5083044;28;20027;-70
2023/09/19 05:55:32;;;;;;;0.20;0.20;;;;;;;20.44;57.52;100804.38;5066065;28;20067;-71
2023/09/19 05:57:58;;;;;;;0.17;0.17;;;;;;;20.34;57.87;100811.88;5092108;28;20507;-70
2023/09/19 06:00:27;;;;;;;0.17;0.17;;;;;;;19.94;59.40;100822.09;5092288;28;20115;-70
2023/09/19 06:02:57;;;;;;;0.10;0.10;;;;;;;19.86;59.78;100833.63;5074880;28;20036;-70
2023/09/19 06:05:24;;;;;;;0.20;0.20;;;;;;;20.11;59.01;100838.00;5072484;28;20059;-69
2023/09/19 06:07:50;;;;;;;0.10;0.10;;;;;;;20.45;58.61;100841.50;5071945;28;20041;-68
2023/09/19 06:10:17;;;;;;;0.20;0.20;;;;;;;19.90;59.91;100840.13;5071689;28;20040;-69
2023/09/19 06:12:43;;;;;;;0.20;0.20;;;;;;;20.60;59.46;100848.72;5071239;28;20063;-69
2023/09/19 06:15:14;;;;;;;0.20;0.20;;;;;;;20.29;59.87;100839.22;5073398;28;20037;-70
2023/09/19 06:17:41;;;;;;;0.10;0.10;;;;;;;20.00;61.35;100837.31;5071219;28;20052;-69
2023/09/19 06:20:12;;;;;;;0.20;0.20;;;;;;;20.00;61.26;100833.75;5071859;28;20480;-69
2023/09/19 06:22:38;;;;;;;0.30;0.30;;;;;;;20.85;58.09;100843.72;5071285;28;20044;-69
2023/09/19 06:25:04;;;;;;;0.20;0.20;;;;;;;20.57;58.33;100843.81;5071280;28;20037;-70
2023/09/19 06:27:29;;;;;;;0.20;0.20;;;;;;;20.55;58.45;100849.59;5052847;28;20059;-69
2023/09/19 06:29:55;;;;;;;0.10;0.10;;;;;;;20.01;59.75;100849.84;5071286;28;20039;-70
2023/09/19 06:32:27;;;;;;;0.20;0.20;;;;;;;20.46;59.73;100843.13;5071644;28;20445;-69
2023/09/19 06:34:54;;;;;;;0.10;0.10;;;;;;;20.88;57.91;100843.16;5071189;28;20043;-69
2023/09/19 06:37:20;;;;;;;0.20;0.20;;;;;;;20.60;58.45;100852.25;5052839;28;20512;-69
2023/09/19 06:39:47;;;;;;;0.20;0.20;;;;;;;20.55;58.27;100841.41;5071094;28;20070;-69
2023/09/19 06:42:13;;;;;;;0.20;0.20;;;;;;;20.65;58.15;100835.00;5053343;28;20025;-69
2023/09/19 06:44:38;;;;;;;0.17;0.17;;;;;;;20.96;57.44;100831.59;5070736;28;20436;-69
2023/09/19 06:47:04;;;;;;;0.10;0.10;;;;;;;20.60;58.66;100821.41;5071518;28;20029;-69
2023/09/19 06:49:30;;;;;;;0.10;0.10;;;;;;;20.79;57.44;100833.19;5071062;28;20496;-69
2023/09/19 06:51:57;;;;;;;0.10;0.10;;;;;;;21.35;56.44;100838.69;5070982;28;20040;-69
2023/09/19 06:54:22;;;;;;;0.20;0.20;;;;;;;20.41;58.10;100834.19;5071021;28;20025;-68
2023/09/19 06:56:48;;;;;;;0.10;0.10;;;;;;;21.25;56.37;100838.84;5070808;28;20044;-69
2023/09/19 06:59:14;;;;;;;0.20;0.20;;;;;;;21.25;56.23;100836.09;5071114;28;20032;-71
2023/09/19 07:01:40;;;;;;;0.10;0.10;;;;;;;20.89;57.29;100836.56;5052622;28;20036;-71
2023/09/19 07:04:05;;;;;;;0.20;0.20;;;;;;;20.81;57.78;100831.75;5070717;28;20044;-68
2023/09/19 07:06:30;;;;;;;0.20;0.20;;;;;;;20.57;58.42;100839.19;5070565;28;20037;-69
2023/09/19 07:08:56;;;;;;;0.10;0.10;;;;;;;21.43;56.49;100825.19;5070454;28;20036;-69
2023/09/19 07:11:22;;;;;;;0.20;0.20;;;;;;;20.55;59.35;100838.66;5071696;28;20120;-70
2023/09/19 07:13:48;;;;;;;0.10;0.10;;;;;;;20.67;59.16;100833.59;5072481;28;20488;-70
2023/09/19 07:16:27;;;;;;;0.10;0.10;;;;;;;21.13;58.00;100841.22;5080114;28;20097;-70
2023/09/19 07:18:52;;;;;;;0.10;0.10;;;;;;;21.42;56.65;100834.50;5070831;28;20140;-69
2023/09/19 07:21:18;;;;;;;0.10;0.10;;;;;;;21.74;55.71;100839.97;5070656;28;20033;-70
2023/09/19 07:23:43;;;;;;;0.10;0.10;;;;;;;21.23;57.30;100841.88;5070310;28;20036;-69
2023/09/19 07:26:08;;;;;;;0.15;0.15;;;;;;;21.71;56.37;100851.53;5070684;28;20533;-70
2023/09/19 07:28:35;;;;;;;0.20;0.20;;;;;;;21.27;57.33;100853.03;5070158;28;20051;-69
2023/09/19 07:31:03;;;;;;;0.10;0.10;;;;;;;21.16;58.40;100857.03;5070325;28;20066;-69
2023/09/19 07:33:28;;;;;;;0.10;0.10;;;;;;;21.45;57.13;100860.41;5070228;28;20041;-69
2023/09/19 07:35:54;;;;;;;0.10;0.10;;;;;;;21.67;56.79;100853.25;5070280;28;20745;-69
2023/09/19 07:38:20;;;;;;;0.10;0.10;;;;;;;21.32;57.23;100852.97;5070917;28;20153;-68
2023/09/19 07:40:46;;;;;;;0.10;0.10;;;;;;;22.33;54.76;100850.19;5070028;28;20037;-69
2023/09/19 07:43:11;;;;;;;0.10;0.10;;;;;;;21.41;57.54;100854.75;5070145;28;20148;-68
2023/09/19 07:45:36;;;;;;;0.10;0.10;;;;;;;20.83;60.00;100861.53;5070014;28;20059;-68
2023/09/19 07:48:06;;;;;;;0.10;0.10;;;;;;;22.02;56.29;100853.75;5070033;28;20024;-70
2023/09/19 07:50:33;;;;;;;0.10;0.10;;;;;;;22.90;53.80;100859.75;5070160;28;20495;-70
2023/09/19 07:52:59;;;;;;;0.10;0.10;;;;;;;21.99;56.74;100852.47;5070658;28;20103;-70
2023/09/19 07:55:25;;;;;;;0.20;0.20;;;;;;;21.54;57.91;100853.97;5069857;28;20032;-72
2023/09/19 07:57:51;;;;;;;0.10;0.10;;;;;;;22.40;55.59;100863.47;5051723;28;20044;-69
2023/09/19 08:00:17;;;;;;;0.10;0.10;;;;;;;22.25;55.36;100861.81;5069955;28;20045;-67
2023/09/19 08:02:43;;;;;;;0.10;0.10;;;;;;;21.95;56.74;100877.97;5069687;28;20074;-70
2023/09/19 08:05:10;;;;;;;0.20;0.20;;;;;;;21.92;56.49;100873.09;5070219;28;20376;-69
2023/09/19 08:07:40;;;;;;;0.10;0.10;;;;;;;22.40;55.41;100877.16;5070608;28;20386;-70
2023/09/19 08:10:07;;;;;;;0.10;0.10;;;;;;;21.43;58.87;100877.13;5089921;28;20044;-68
2023/09/19 08:12:35;;;;;;;0.10;0.10;;;;;;;21.30;58.05;100880.63;5090006;28;20032;-71
2023/09/19 08:15:01;;;;;;;0.10;0.10;;;;;;;22.16;56.18;100880.06;5089860;28;20114;-69
2023/09/19 08:17:26;;;;;;;0.10;0.10;;;;;;;22.02;56.29;100884.69;5069850;28;20740;-68
2023/09/19 08:19:52;;;;;;;0.10;0.10;;;;;;;23.11;53.70;100877.41;5051702;28;20036;-69
2023/09/19 08:22:19;;;;;;;0.10;0.10;;;;;;;21.94;57.12;100879.09;5069758;28;20032;-69
2023/09/19 08:24:44;;;;;;;0.10;0.10;;;;;;;22.16;56.55;100879.25;5069498;28;20040;-69
2023/09/19 08:27:10;;;;;;;0.10;0.10;;;;;;;21.52;58.35;100885.50;5069387;28;20032;-68
2023/09/19 08:29:38;;;;;;;0.10;0.10;;;;;;;22.01;56.57;100869.41;5069465;28;20043;-69
2023/09/19 08:32:04;;;;;;;0.10;0.10;;;;;;;21.96;56.16;100874.13;5070133;28;20464;-69
2023/09/19 08:34:31;;;;;;;0.10;0.10;;;;;;;22.46;55.16;100871.31;5069380;28;20055;-69
2023/09/19 08:36:56;;;;;;;0.10;0.10;;;;;;;22.72;53.78;100874.38;5071220;28;20032;-68
2023/09/19 08:39:25;;;;;;;0.10;0.10;;;;;;;22.14;55.91;100862.31;5073623;28;20028;-68
2023/09/19 08:41:59;;;;;;;0.10;0.10;;;;;;;22.61;54.35;100865.56;5070265;28;20089;-68
2023/09/19 08:44:24;;;;;;;0.20;0.20;;;;;;;23.05;52.92;100853.13;5071575;28;20063;-69
2023/09/19 08:46:55;;;;;;;0.10;0.10;;;;;;;22.50;53.89;100876.97;5073191;28;20627;-69
2023/09/19 08:49:32;;;;;;;0.20;0.20;;;;;;;22.48;54.89;100857.28;5090614;28;20034;-69
2023/09/19 08:52:20;;;;;;;0.10;0.10;;;;;;;23.33;52.25;100863.75;5093351;28;20070;-70
2023/09/19 08:54:48;;;;;;;0.10;0.10;;;;;;;23.29;51.92;100864.66;5081245;28;20496;-68
2023/09/19 08:57:21;;;;;;;0.10;0.10;;;;;;;22.91;53.04;100866.84;5072822;28;20128;-69
2023/09/19 08:59:47;;;;;;;0.10;0.10;;;;;;;22.99;52.16;100874.38;5075807;28;20046;-67
2023/09/19 09:02:15;;;;;;;0.10;0.10;;;;;;;22.89;53.27;100874.56;5093708;28;20024;-68
2023/09/19 09:04:41;;;;;;;0.10;0.10;;;;;;;22.96;53.19;100860.47;5075016;28;20511;-68
2023/09/19 09:07:13;;;;;;;0.10;0.10;;;;;;;23.66;51.03;100867.09;5093116;28;20392;-68
2023/09/19 09:09:42;;;;;;;0.10;0.10;;;;;;;22.40;53.81;100886.19;5074999;28;20124;-69
2023/09/19 09:12:15;;;;;;;0.10;0.10;;;;;;;23.16;52.66;100860.81;5084363;28;20480;-70
2023/09/19 09:14:46;;;;;;;0.10;0.10;;;;;;;22.54;53.72;100865.09;5072811;28;20040;-71
2023/09/19 09:17:11;;;;;;;0.10;0.10;;;;;;;23.63;51.24;100845.75;5073005;28;20127;-69
2023/09/19 09:19:37;;;;;;;0.10;0.10;;;;;;;23.09;52.78;100851.41;5072531;28;20036;-69
2023/09/19 09:22:11;;;;;;;0.10;0.10;;;;;;;23.54;51.83;100855.88;5072556;28;20028;-69
2023/09/19 09:24:39;;;;;;;0.00;0.00;;;;;;;23.65;51.42;100859.97;5072290;28;20040;-68
2023/09/19 09:27:08;;;;;;;0.05;0.05;;;;;;;22.92;53.30;100862.97;5072209;28;20047;-68
2023/09/19 09:29:49;;;;;;;0.10;0.10;;;;;;;23.66;51.49;100849.81;5071747;28;20391;-67
2023/09/19 09:32:21;;;;;;;0.10;0.10;;;;;;;22.46;53.96;100863.09;5051561;28;20021;-69
2023/09/19 09:34:51;;;;;;;0.10;0.10;;;;;;;23.77;51.23;100857.47;5051632;28;20286;-69
2023/09/19 09:37:21;;;;;;;0.10;0.10;;;;;;;24.34;50.34;100862.06;5073552;28;20035;-69
2023/09/19 09:39:58;;;;;;;0.10;0.10;;;;;;;22.81;52.84;100869.81;5091574;28;20040;-68
2023/09/19 09:42:32;;;;;;;0.10;0.10;;;;;;;23.27;52.19;100862.19;5080874;28;20032;-69
2023/09/19 09:45:28;;;;;;;0.10;0.10;;;;;;;23.80;50.69;100876.09;5071170;28;20040;-69
2023/09/19 09:47:56;;;;;;;0.10;0.10;;;;;;;23.89;49.10;100844.00;5070427;28;20075;-69
2023/09/19 09:50:29;;;;;;;0.00;0.00;;;;;;;24.03;50.20;100860.44;5071666;28;20114;-69
2023/09/19 09:53:02;;;;;;;0.00;0.00;;;;;;;24.42;49.20;100852.22;5091204;28;20097;-69
2023/09/19 09:55:28;;;;;;;0.10;0.10;;;;;;;24.37;48.96;100847.69;5073050;28;20048;-70
2023/09/19 09:58:29;;;;;;;0.00;0.00;;;;;;;26.12;44.92;100850.03;5086554;28;20446;-70
2023/09/19 10:00:57;;;;;;;0.00;0.00;;;;;;;23.88;48.43;100860.78;5008435;28;20721;-69
2023/09/19 10:03:32;;;;;;;0.08;0.08;;;;;;;24.93;46.84;100857.94;5008369;28;20121;-68
2023/09/19 10:05:58;;;;;;;0.10;0.10;;;;;;;24.31;47.40;100857.19;5008726;28;20092;-68
2023/09/19 10:08:24;;;;;;;0.00;0.00;;;;;;;24.19;48.04;100867.97;5009742;28;20045;-69
2023/09/19 10:13:21;;;;;;;0.00;0.00;;;;;;;24.45;46.13;100868.09;5010626;28;20038;-67
2023/09/19 10:15:51;;;;;;;0.00;0.00;;;;;;;24.88;45.23;100838.84;5009165;28;20065;-69
2023/09/19 10:18:26;;;;;;;0.00;0.00;;;;;;;23.68;47.95;100844.81;5009230;28;20049;-69
2023/09/19 10:20:52;;;;;;;0.00;0.00;;;;;;;23.61;48.00;100838.94;5009182;28;20044;-68
2023/09/19 10:23:23;;;;;;;0.00;0.00;;;;;;;24.00;47.75;100842.63;5009461;28;20030;-69
2023/09/19 10:25:49;;;;;;;0.10;0.10;;;;;;;24.05;47.36;100841.72;5008833;28;20034;-70
2023/09/19 10:28:21;;;;;;;0.08;0.08;;;;;;;23.50;49.01;100836.47;4992111;28;20218;-69
2023/09/19 10:30:49;;;;;;;0.10;0.10;;;;;;;24.34;46.63;100834.59;5018409;28;20132;-71
2023/09/19 10:33:27;;;;;;;0.00;0.00;;;;;;;23.76;47.45;100838.59;5028403;28;20032;-70
2023/09/19 10:35:56;;;;;;;0.00;0.00;;;;;;;24.11;46.88;100840.44;5048956;28;20032;-68
2023/09/19 10:38:26;;;;;;;0.00;0.00;;;;;;;23.26;49.19;100832.34;5091402;28;20039;-70
2023/09/19 10:40:53;;;;;;;0.10;0.10;;;;;;;23.91;48.11;100828.03;5091225;28;20193;-69
2023/09/19 10:43:20;;;;;;;0.10;0.10;;;;;;;23.95;48.40;100847.44;5072813;28;20029;-70
2023/09/19 10:45:53;;;;;;;0.03;0.03;;;;;;;24.94;46.38;100832.03;5089987;28;20147;-69
2023/09/19 10:48:19;;;;;;;0.00;0.00;;;;;;;24.42;47.17;100822.81;5090969;28;20036;-68
2023/09/19 10:51:09;;;;;;;0.10;0.10;;;;;;;24.70;46.22;100822.59;5091338;28;20039;-70
2023/09/19 10:54:00;;;;;;;0.00;0.00;;;;;;;25.15;45.71;100816.56;5025770;28;20171;-69
2023/09/19 10:56:32;;;;;;;0.10;0.10;;;;;;;24.96;46.00;100815.25;5008487;28;20471;-70
2023/09/19 10:59:12;;;;;;;0.10;0.10;;;;;;;24.93;46.40;100813.94;5008175;28;20054;-70
2023/09/19 11:01:53;;;;;;;0.03;0.03;;;;;;;24.74;46.65;100809.84;5008260;28;20397;-70
2023/09/19 11:04:24;;;;;;;;;;;;;;;25.01;46.40;100791.13;5008682;28;20196;-69
2023/09/19 11:07:10;;;;;;;;;;;;;;;25.47;44.93;100773.19;5008848;28;20555;-69
2023/09/19 11:09:53;;;;;;;0.00;0.00;;;;;;;24.86;45.66;100777.06;5008261;28;19986;-68
2023/09/19 11:12:30;;;;;;;0.00;0.00;;;;;;;24.70;46.88;100773.13;5007394;28;20122;-68
2023/09/19 11:14:56;;;;;;;0.00;0.00;;;;;;;24.44;47.19;100803.28;5008345;28;20034;-70
2023/09/19 11:17:42;;;;;;;0.10;0.10;;;;;;;25.05;45.93;100789.38;5007642;28;20052;-69
2023/09/19 11:22:52;;;;;;;0.00;0.00;;;;;;;26.29;43.31;100767.31;5007900;28;20136;-68
2023/09/19 11:25:47;;;;;;;0.00;0.00;;;;;;;26.17;44.00;100773.50;5007917;28;20042;-70
2023/09/19 11:28:17;;;;;;;0.00;0.00;;;;;;;24.89;46.08;100788.22;5007238;28;20042;-70
2023/09/19 11:30:44;;;;;;;0.10;0.10;;;;;;;25.29;44.81;100783.38;5040748;28;20054;-69
2023/09/19 11:33:38;;;;;;;0.00;0.00;;;;;;;24.89;46.49;100776.41;5069799;28;20067;-69
2023/09/19 11:36:15;;;;;;;0.00;0.00;;;;;;;24.17;47.53;100784.25;5052615;28;20419;-70
2023/09/19 11:38:47;;;;;;;0.00;0.00;;;;;;;24.57;46.43;100774.84;5072024;28;20124;-67